createdAt,value
2018-05-21T00:00:32.393Z,15.36
2018-05-21T00:01:33.380Z,15.38
2018-05-21T00:02:29.915Z,15.51
2018-05-21T00:03:28.728Z,15.53
2018-05-21T00:04:28.727Z,15.54
2018-05-21T00:05:28.587Z,15.65
2018-05-21T00:06:28.763Z,15.64
2018-05-21T00:07:28.927Z,15.68
2018-05-21T00:08:29.384Z,15.59
2018-05-21T00:09:28.679Z,15.72
2018-05-21T00:10:28.656Z,15.74
2018-05-21T00:11:29.037Z,15.67
2018-05-21T00:12:30.881Z,15.60
2018-05-21T00:13:28.840Z,15.53
2018-05-21T00:14:30.374Z,15.49
2018-05-21T00:15:28.776Z,15.38
2018-05-21T00:16:28.704Z,15.34
2018-05-21T00:17:28.523Z,15.35
2018-05-21T00:18:28.635Z,15.16
2018-05-21T00:19:28.530Z,15.25
2018-05-21T00:20:28.597Z,15.17
2018-05-21T00:21:28.487Z,15.13
2018-05-21T00:22:28.512Z,15.07
2018-05-21T00:23:28.747Z,15.10
2018-05-21T00:24:28.716Z,15.02
2018-05-21T00:25:28.594Z,14.95
2018-05-21T00:26:28.670Z,14.92
2018-05-21T00:27:29.131Z,14.98
2018-05-21T00:28:32.885Z,14.95
2018-05-21T00:29:30.933Z,14.83
2018-05-21T00:30:29.009Z,14.77
2018-05-21T00:31:28.639Z,14.84
2018-05-21T00:32:29.888Z,14.73
2018-05-21T00:38:39.521Z,14.58
2018-05-21T00:39:11.367Z,14.60
2018-05-21T00:40:11.382Z,14.55
2018-05-21T00:41:11.732Z,14.54
2018-05-21T00:42:11.945Z,14.54
2018-05-21T00:43:12.675Z,14.52
2018-05-21T00:44:11.333Z,14.39
2018-05-21T00:45:11.055Z,14.36
2018-05-21T00:46:11.647Z,14.45
2018-05-21T00:47:11.350Z,14.36
2018-05-21T00:48:11.401Z,14.43
2018-05-21T00:49:11.469Z,14.35
2018-05-21T00:50:12.566Z,14.28
2018-05-21T00:51:13.398Z,14.28
2018-05-21T00:52:11.067Z,14.21
2018-05-21T00:53:10.967Z,14.22
2018-05-21T00:54:10.929Z,14.27
2018-05-21T00:55:19.813Z,14.15
2018-05-21T00:56:25.584Z,14.21
2018-05-21T00:57:21.130Z,14.24
2018-05-21T00:58:20.663Z,14.22
2018-05-21T00:59:19.164Z,14.15
2018-05-21T01:00:21.190Z,14.21
2018-05-21T01:01:23.764Z,14.24
2018-05-21T01:02:25.810Z,14.17
2018-05-21T01:03:12.752Z,14.22
2018-05-21T01:04:13.374Z,14.22
2018-05-21T01:05:10.806Z,14.17
2018-05-21T01:06:10.874Z,14.14
2018-05-21T01:07:10.909Z,14.04
2018-05-21T01:08:10.863Z,14.14
2018-05-21T01:09:10.905Z,14.20
2018-05-21T01:10:10.846Z,14.14
2018-05-21T01:11:11.007Z,14.12
2018-05-21T01:12:10.845Z,14.14
2018-05-21T01:13:10.730Z,14.20
2018-05-21T01:14:10.759Z,14.20
2018-05-21T01:15:10.674Z,14.20
2018-05-21T01:16:10.794Z,14.21
2018-05-21T01:17:10.720Z,14.17
2018-05-21T01:18:10.930Z,14.22
2018-05-21T01:19:10.714Z,14.18
2018-05-21T01:20:10.662Z,14.17
2018-05-21T01:21:10.565Z,14.28
2018-05-21T01:22:10.600Z,14.24
2018-05-21T01:23:10.632Z,14.24
2018-05-21T01:24:10.676Z,14.29
2018-05-21T01:25:10.625Z,14.32
2018-05-21T01:26:10.510Z,14.33
2018-05-21T01:27:10.656Z,14.37
2018-05-21T01:28:10.551Z,14.46
2018-05-21T01:29:10.533Z,14.40
2018-05-21T01:30:10.465Z,14.51
2018-05-21T01:31:10.726Z,14.46
2018-05-21T01:32:10.516Z,14.47
2018-05-21T01:33:10.532Z,14.55
2018-05-21T01:34:10.630Z,14.57
2018-05-21T01:35:10.381Z,14.51
2018-05-21T01:36:10.421Z,14.58
2018-05-21T01:37:10.395Z,14.54
2018-05-21T01:38:10.424Z,14.55
2018-05-21T01:39:10.365Z,14.50
2018-05-21T01:40:10.407Z,14.50
2018-05-21T01:41:10.395Z,14.51
2018-05-21T01:42:10.282Z,14.55
2018-05-21T01:43:10.296Z,14.51
2018-05-21T01:44:10.254Z,14.55
2018-05-21T01:45:10.224Z,14.50
2018-05-21T01:46:12.315Z,14.51
2018-05-21T01:47:11.260Z,14.39
2018-05-21T01:48:10.301Z,14.43
2018-05-21T01:49:10.246Z,14.36
2018-05-21T01:50:10.301Z,14.42
2018-05-21T01:51:10.457Z,14.28
2018-05-21T01:52:10.246Z,14.36
2018-05-21T01:53:10.377Z,14.33
2018-05-21T01:54:10.600Z,14.32
2018-05-21T01:55:10.574Z,14.25
2018-05-21T01:56:10.132Z,14.21
2018-05-21T01:57:10.167Z,14.18
2018-05-21T01:58:10.137Z,14.21
2018-05-21T01:59:10.073Z,14.24
2018-05-21T02:00:10.094Z,14.20
2018-05-21T02:01:10.036Z,14.25
2018-05-21T02:02:10.065Z,14.21
2018-05-21T02:03:10.257Z,14.21
2018-05-21T02:04:10.038Z,14.20
2018-05-21T02:05:09.974Z,14.21
2018-05-21T02:06:09.972Z,14.28
2018-05-21T02:07:09.971Z,14.32
2018-05-21T02:08:09.952Z,14.15
2018-05-21T02:09:10.114Z,14.29
2018-05-21T02:10:10.047Z,14.28
2018-05-21T02:11:09.939Z,14.21
2018-05-21T02:12:10.399Z,14.28
2018-05-21T02:13:10.044Z,14.24
2018-05-21T02:14:10.173Z,14.20
2018-05-21T02:15:09.894Z,14.15
2018-05-21T02:16:10.578Z,14.17
2018-05-21T02:17:10.189Z,14.22
2018-05-21T02:18:09.895Z,14.20
2018-05-21T02:19:09.771Z,14.18
2018-05-21T02:20:09.804Z,14.22
2018-05-21T02:21:09.734Z,14.21
2018-05-21T02:22:09.710Z,14.17
2018-05-21T02:23:09.721Z,14.22
2018-05-21T02:24:10.239Z,14.17
2018-05-21T02:25:09.768Z,14.25
2018-05-21T02:26:09.663Z,14.17
2018-05-21T02:27:09.672Z,14.17
2018-05-21T02:48:06.338Z,13.89
2018-05-21T02:50:05.268Z,13.78
2018-05-21T02:51:05.502Z,13.79
2018-05-21T02:52:06.210Z,13.79
2018-05-21T02:53:04.766Z,13.79
2018-05-21T02:54:05.265Z,13.81
2018-05-21T02:55:10.267Z,13.84
2018-05-21T02:58:48.597Z,13.82
2018-05-21T02:59:46.853Z,13.79
2018-05-21T03:00:50.138Z,13.85
2018-05-21T03:01:38.876Z,13.77
2018-05-21T03:04:48.371Z,13.78
2018-05-21T03:05:41.024Z,13.89
2018-05-21T03:06:41.075Z,13.88
2018-05-21T03:07:42.161Z,13.88
2018-05-21T03:08:40.837Z,13.88
2018-05-21T03:09:40.891Z,13.88
2018-05-21T03:10:40.759Z,13.89
2018-05-21T03:11:40.798Z,13.95
2018-05-21T03:12:42.671Z,13.87
2018-05-21T03:13:40.942Z,13.88
2018-05-21T03:14:40.795Z,13.88
2018-05-21T03:15:41.673Z,13.85
2018-05-21T03:16:41.266Z,13.89
2018-05-21T03:17:40.671Z,13.89
2018-05-21T03:18:40.657Z,13.92
2018-05-21T03:19:40.658Z,13.99
2018-05-21T03:20:40.606Z,13.89
2018-05-21T03:21:40.606Z,13.92
2018-05-21T03:22:40.632Z,13.87
2018-05-21T03:23:41.168Z,13.84
2018-05-21T03:24:44.729Z,13.79
2018-05-21T03:25:42.235Z,13.81
2018-05-21T03:26:58.165Z,13.81
2018-05-21T03:27:42.680Z,13.81
2018-05-21T03:29:42.170Z,13.82
2018-05-21T03:30:40.770Z,13.79
2018-05-21T03:31:40.485Z,13.84
2018-05-21T03:33:49.167Z,13.82
2018-05-21T03:34:51.672Z,13.78
2018-05-21T03:48:17.748Z,13.63
2018-05-21T04:16:34.778Z,14.77
2018-05-21T04:19:01.957Z,14.96
2018-05-21T04:41:57.208Z,16.79
2018-05-21T04:52:01.404Z,15.80
2018-05-21T04:52:02.177Z,15.86
2018-05-21T04:53:02.259Z,15.69
2018-05-21T04:54:30.601Z,15.82
2018-05-21T04:55:02.008Z,15.74
2018-05-21T04:56:12.287Z,15.80
2018-05-21T04:57:03.765Z,15.83
2018-05-21T05:03:40.589Z,15.90
2018-05-21T05:07:58.489Z,15.92
2018-05-21T05:08:58.472Z,15.89
2018-05-21T05:09:58.425Z,15.96
2018-05-21T05:10:58.426Z,16.01
2018-05-21T05:11:58.840Z,16.07
2018-05-21T05:12:58.347Z,16.02
2018-05-21T05:13:58.352Z,16.04
2018-05-21T05:14:58.329Z,16.01
2018-05-21T05:15:58.303Z,16.11
2018-05-21T05:16:58.987Z,16.15
2018-05-21T05:18:11.372Z,16.23
2018-05-21T05:19:07.572Z,16.24
2018-05-21T05:19:58.317Z,16.30
2018-05-21T05:20:59.091Z,16.31
2018-05-21T05:21:58.324Z,16.35
2018-05-21T05:22:58.495Z,16.39
2018-05-21T05:23:58.285Z,16.39
2018-05-21T05:24:58.231Z,16.42
2018-05-21T05:26:01.872Z,16.42
2018-05-21T05:27:59.601Z,16.34
2018-05-21T05:28:58.639Z,16.39
2018-05-21T05:29:58.156Z,16.31
2018-05-21T05:31:14.845Z,16.34
2018-05-21T05:32:02.202Z,16.31
2018-05-21T05:33:02.123Z,16.28
2018-05-21T05:33:58.113Z,16.24
2018-05-21T05:34:58.075Z,16.27
2018-05-21T05:35:58.087Z,16.21
2018-05-21T05:36:58.153Z,16.24
2018-05-21T05:37:58.069Z,16.23
2018-05-21T05:38:58.029Z,16.28
2018-05-21T05:39:58.864Z,16.28
2018-05-21T05:40:58.004Z,16.34
2018-05-21T05:41:58.059Z,16.38
2018-05-21T05:42:57.955Z,16.28
2018-05-21T05:43:57.934Z,16.39
2018-05-21T05:44:57.929Z,16.41
2018-05-21T05:45:57.913Z,16.42
2018-05-21T05:46:57.970Z,16.43
2018-05-21T05:47:57.923Z,16.56
2018-05-21T05:48:57.882Z,16.45
2018-05-21T05:49:57.873Z,16.58
2018-05-21T05:50:58.395Z,16.57
2018-05-21T05:51:57.869Z,16.60
2018-05-21T05:52:57.825Z,16.68
2018-05-21T05:53:57.870Z,16.68
2018-05-21T05:54:57.804Z,16.73
2018-05-21T05:55:57.799Z,16.71
2018-05-21T05:56:57.810Z,16.73
2018-05-21T05:58:59.897Z,16.71
2018-05-21T05:59:58.880Z,16.82
2018-05-21T06:05:09.046Z,16.93
2018-05-21T06:06:04.891Z,16.98
2018-05-21T06:07:24.392Z,17.11
2018-05-21T06:09:00.632Z,17.16
2018-05-21T06:09:58.692Z,17.21
2018-05-21T06:10:58.551Z,17.30
2018-05-21T06:11:58.544Z,17.30
2018-05-21T06:12:58.521Z,17.44
2018-05-21T06:13:58.588Z,17.48
2018-05-21T06:14:58.483Z,17.55
2018-05-21T06:15:58.531Z,17.62
2018-05-21T06:16:58.475Z,17.82
2018-05-21T06:17:58.499Z,17.81
2018-05-21T06:18:58.470Z,17.81
2018-05-21T06:19:58.765Z,17.87
2018-05-21T06:20:58.422Z,17.81
2018-05-21T06:21:58.429Z,17.92
2018-05-21T06:22:58.438Z,17.96
2018-05-21T06:23:58.422Z,17.97
2018-05-21T06:24:58.374Z,18.02
2018-05-21T06:25:58.466Z,18.02
2018-05-21T06:26:58.334Z,18.07
2018-05-21T06:27:58.492Z,18.03
2018-05-21T06:28:58.311Z,18.07
2018-05-21T06:29:58.334Z,18.08
2018-05-21T06:30:58.313Z,17.99
2018-05-21T06:31:58.272Z,17.93
2018-05-21T06:32:58.277Z,17.89
2018-05-21T06:33:58.353Z,17.97
2018-05-21T06:34:58.233Z,17.90
2018-05-21T06:35:58.267Z,17.84
2018-05-21T06:36:58.232Z,17.87
2018-05-21T06:37:58.214Z,17.96
2018-05-21T06:38:58.192Z,17.92
2018-05-21T06:39:58.171Z,18.05
2018-05-21T06:41:19.190Z,18.15
2018-05-21T06:41:58.187Z,18.08
2018-05-21T06:42:58.164Z,18.26
2018-05-21T06:43:58.131Z,18.26
2018-05-21T06:44:58.150Z,18.29
2018-05-21T06:45:58.135Z,18.48
2018-05-21T06:46:58.139Z,18.50
2018-05-21T06:47:58.105Z,18.58
2018-05-21T06:48:58.115Z,18.62
2018-05-21T06:49:58.099Z,18.51
2018-05-21T06:50:58.052Z,18.51
2018-05-21T06:51:58.088Z,18.57
2018-05-21T06:52:58.035Z,18.70
2018-05-21T06:53:58.028Z,18.65
2018-05-21T06:54:58.010Z,18.63
2018-05-21T06:55:58.018Z,18.65
2018-05-21T06:56:57.982Z,18.69
2018-05-21T06:57:57.992Z,18.52
2018-05-21T06:58:57.958Z,18.51
2018-05-21T06:59:57.940Z,18.62
2018-05-21T07:00:57.929Z,18.60
2018-05-21T07:01:57.934Z,18.62
2018-05-21T07:02:57.930Z,18.78
2018-05-21T07:03:57.898Z,18.72
2018-05-21T07:04:57.880Z,18.73
2018-05-21T07:05:57.871Z,18.78
2018-05-21T07:06:57.862Z,18.84
2018-05-21T07:08:06.040Z,18.90
2018-05-21T07:08:57.836Z,19.00
2018-05-21T07:09:57.818Z,19.16
2018-05-21T07:10:57.811Z,19.14
2018-05-21T07:11:57.799Z,19.22
2018-05-21T07:12:57.798Z,19.26
2018-05-21T07:13:57.809Z,19.31
2018-05-21T07:14:57.767Z,19.37
2018-05-21T07:15:57.761Z,19.36
2018-05-21T07:16:57.744Z,19.41
2018-05-21T07:17:57.737Z,19.59
2018-05-21T07:18:57.726Z,19.58
2018-05-21T07:19:57.725Z,19.61
2018-05-21T07:20:57.720Z,19.65
2018-05-21T07:21:57.683Z,19.61
2018-05-21T07:22:57.681Z,19.55
2018-05-21T07:23:57.667Z,19.61
2018-05-21T07:24:57.668Z,19.73
2018-05-21T07:25:57.659Z,19.77
2018-05-21T07:26:57.639Z,19.88
2018-05-21T07:27:57.625Z,20.05
2018-05-21T07:28:57.620Z,20.01
2018-05-21T07:29:57.634Z,20.14
2018-05-21T07:30:57.635Z,20.14
2018-05-21T07:31:59.433Z,20.24
2018-05-21T07:32:58.607Z,20.39
2018-05-21T07:33:57.849Z,20.41
2018-05-21T07:35:01.942Z,20.47
2018-05-21T07:35:57.554Z,20.61
2018-05-21T07:36:57.535Z,20.62
2018-05-21T07:37:57.556Z,20.89
2018-05-21T07:38:57.535Z,20.87
2018-05-21T07:39:57.501Z,20.94
2018-05-21T07:40:57.500Z,21.04
2018-05-21T07:41:57.475Z,21.14
2018-05-21T07:42:57.479Z,21.21
2018-05-21T07:43:57.476Z,21.43
2018-05-21T07:44:57.506Z,21.37
2018-05-21T07:45:57.442Z,21.38
2018-05-21T07:46:57.445Z,21.38
2018-05-21T07:47:57.417Z,21.47
2018-05-21T07:48:57.413Z,21.50
2018-05-21T07:49:57.414Z,21.46
2018-05-21T07:50:57.410Z,21.47
2018-05-21T07:51:57.370Z,21.42
2018-05-21T07:52:57.373Z,21.54
2018-05-21T07:53:57.357Z,21.61
2018-05-21T07:54:57.354Z,21.58
2018-05-21T07:55:57.363Z,21.74
2018-05-21T07:56:57.332Z,21.72
2018-05-21T07:57:57.326Z,21.80
2018-05-21T07:58:57.318Z,21.88
2018-05-21T07:59:57.316Z,21.91
2018-05-21T08:00:57.283Z,21.98
2018-05-21T08:01:57.273Z,21.99
2018-05-21T08:02:57.272Z,22.05
2018-05-21T08:03:57.254Z,22.06
2018-05-21T08:04:57.241Z,22.03
2018-05-21T08:05:57.244Z,22.10
2018-05-21T08:06:57.241Z,22.09
2018-05-21T08:07:57.489Z,22.15
2018-05-21T08:08:57.207Z,22.21
2018-05-21T08:09:57.216Z,22.14
2018-05-21T08:10:57.183Z,22.17
2018-05-21T08:11:57.188Z,22.27
2018-05-21T08:12:57.170Z,22.24
2018-05-21T08:13:57.154Z,22.36
2018-05-21T08:14:57.199Z,22.36
2018-05-21T08:15:57.149Z,22.39
2018-05-21T08:16:57.160Z,22.39
2018-05-21T08:17:57.114Z,22.46
2018-05-21T08:18:57.104Z,22.68
2018-05-21T08:19:57.093Z,22.68
2018-05-21T08:20:57.081Z,22.70
2018-05-21T08:21:57.078Z,22.70
2018-05-21T08:22:57.089Z,22.75
2018-05-21T08:23:57.059Z,22.77
2018-05-21T08:24:57.061Z,22.91
2018-05-21T08:25:57.032Z,22.82
2018-05-21T08:26:57.133Z,22.97
2018-05-21T08:27:57.036Z,22.98
2018-05-21T08:28:57.009Z,23.05
2018-05-21T08:29:57.006Z,23.05
2018-05-21T08:30:56.992Z,23.12
2018-05-21T08:31:57.049Z,23.20
2018-05-21T08:32:56.970Z,23.17
2018-05-21T08:33:56.986Z,23.38
2018-05-21T08:34:56.968Z,23.35
2018-05-21T08:35:56.939Z,23.46
2018-05-21T08:36:56.931Z,23.54
2018-05-21T08:37:56.945Z,23.60
2018-05-21T08:38:56.909Z,23.73
2018-05-21T08:39:56.915Z,23.60
2018-05-21T08:40:56.895Z,23.35
2018-05-21T08:41:56.883Z,23.42
2018-05-21T08:42:56.887Z,23.31
2018-05-21T08:43:56.883Z,23.25
2018-05-21T08:44:56.860Z,23.31
2018-05-21T08:45:56.882Z,23.20
2018-05-21T08:46:56.837Z,23.23
2018-05-21T08:47:56.826Z,23.39
2018-05-21T08:48:56.823Z,23.50
2018-05-21T08:49:56.827Z,23.57
2018-05-21T08:50:56.820Z,23.76
2018-05-21T08:51:56.812Z,24.00
2018-05-21T08:52:56.787Z,24.18
2018-05-21T08:53:56.804Z,24.28
2018-05-21T08:54:56.796Z,24.49
2018-05-21T08:55:56.763Z,24.61
2018-05-21T08:56:56.752Z,24.80
2018-05-21T08:57:56.756Z,25.08
2018-05-21T08:58:56.739Z,25.17
2018-05-21T08:59:56.732Z,24.99
2018-05-21T09:00:56.715Z,25.15
2018-05-21T09:01:56.710Z,25.47
2018-05-21T09:02:56.713Z,26.09
2018-05-21T09:03:56.698Z,26.55
2018-05-21T09:04:56.716Z,27.04
2018-05-21T09:05:56.672Z,27.59
2018-05-21T09:06:56.666Z,27.50
2018-05-21T09:07:56.672Z,27.84
2018-05-21T09:08:56.645Z,28.15
2018-05-21T09:09:56.684Z,28.17
2018-05-21T09:10:56.627Z,27.85
2018-05-21T09:11:56.633Z,27.85
2018-05-21T09:12:56.606Z,27.85
2018-05-21T09:13:56.622Z,27.70
2018-05-21T09:14:56.601Z,27.63
2018-05-21T09:15:56.605Z,27.34
2018-05-21T09:16:56.637Z,27.41
2018-05-21T09:17:56.614Z,27.36
2018-05-21T09:18:56.555Z,27.41
2018-05-21T09:19:56.555Z,27.39
2018-05-21T09:20:56.584Z,27.70
2018-05-21T09:21:56.536Z,27.99
2018-05-21T09:22:56.550Z,28.18
2018-05-21T09:23:56.524Z,28.61
2018-05-21T09:24:56.522Z,28.59
2018-05-21T09:25:56.516Z,28.44
2018-05-21T09:26:56.511Z,28.30
2018-05-21T09:27:56.492Z,28.41
2018-05-21T09:28:56.480Z,28.62
2018-05-21T09:29:56.472Z,28.37
2018-05-21T09:30:56.466Z,28.78
2018-05-21T09:31:56.498Z,29.05
2018-05-21T09:32:56.471Z,29.11
2018-05-21T09:33:56.454Z,29.43
2018-05-21T09:34:56.449Z,29.74
2018-05-21T09:35:56.451Z,29.33
2018-05-21T09:36:56.433Z,28.83
2018-05-21T09:37:56.460Z,28.86
2018-05-21T09:38:56.443Z,28.98
2018-05-21T09:39:56.428Z,28.98
2018-05-21T09:40:56.428Z,28.33
2018-05-21T09:41:56.441Z,28.48
2018-05-21T09:42:56.440Z,28.83
2018-05-21T09:43:56.410Z,29.15
2018-05-21T09:44:56.407Z,29.00
2018-05-21T09:45:56.407Z,29.26
2018-05-21T09:46:58.229Z,29.64
2018-05-21T09:47:56.425Z,29.98
2018-05-21T09:48:56.406Z,29.12
2018-05-21T09:49:56.402Z,28.77
2018-05-21T09:50:56.395Z,28.41
2018-05-21T09:51:56.398Z,27.66
2018-05-21T09:52:56.397Z,28.25
2018-05-21T09:53:56.404Z,28.56
2018-05-21T09:54:56.392Z,29.04
2018-05-21T09:55:56.386Z,28.54
2018-05-21T09:56:56.388Z,28.25
2018-05-21T09:57:56.384Z,27.92
2018-05-21T09:58:56.403Z,27.63
2018-05-21T09:59:56.404Z,27.25
2018-05-21T10:00:56.397Z,26.95
2018-05-21T10:01:56.384Z,26.70
2018-05-21T10:02:56.381Z,26.44
2018-05-21T10:03:56.414Z,26.32
2018-05-21T10:04:56.382Z,26.10
2018-05-21T10:05:56.380Z,25.79
2018-05-21T10:06:56.366Z,26.06
2018-05-21T10:07:56.372Z,26.48
2018-05-21T10:08:56.374Z,26.99
2018-05-21T10:09:56.379Z,27.28
2018-05-21T10:10:56.373Z,27.24
2018-05-21T10:11:56.358Z,27.12
2018-05-21T10:12:56.357Z,27.18
2018-05-21T10:13:56.351Z,27.50
2018-05-21T10:14:56.369Z,27.66
2018-05-21T10:15:56.362Z,27.70
2018-05-21T10:16:56.346Z,28.06
2018-05-21T10:17:56.338Z,28.21
2018-05-21T10:18:56.337Z,28.24
2018-05-21T10:19:56.350Z,28.09
2018-05-21T10:20:56.341Z,28.22
2018-05-21T10:21:56.333Z,28.41
2018-05-21T10:22:56.343Z,28.25
2018-05-21T10:23:56.354Z,28.43
2018-05-21T10:24:56.328Z,28.29
2018-05-21T10:25:56.332Z,28.37
2018-05-21T10:26:56.314Z,28.44
2018-05-21T10:27:56.309Z,28.71
2018-05-21T10:28:56.331Z,28.76
2018-05-21T10:29:56.307Z,28.54
2018-05-21T10:30:56.375Z,28.66
2018-05-21T10:31:56.296Z,28.51
2018-05-21T10:32:56.377Z,28.02
2018-05-21T10:33:56.291Z,27.62
2018-05-21T10:34:56.293Z,27.39
2018-05-21T10:35:56.289Z,27.46
2018-05-21T10:36:56.292Z,27.77
2018-05-21T10:37:56.307Z,28.06
2018-05-21T10:38:56.315Z,28.40
2018-05-21T10:39:56.296Z,29.02
2018-05-21T10:40:56.277Z,29.67
2018-05-21T10:41:56.275Z,30.05
2018-05-21T10:42:56.271Z,30.57
2018-05-21T10:43:56.345Z,30.91
2018-05-21T10:44:56.270Z,30.79
2018-05-21T10:45:56.283Z,30.57
2018-05-21T10:46:56.306Z,29.30
2018-05-21T10:47:56.281Z,28.56
2018-05-21T10:48:56.293Z,28.12
2018-05-21T10:49:56.268Z,27.84
2018-05-21T10:50:56.262Z,27.75
2018-05-21T10:51:56.260Z,28.14
2018-05-21T10:52:56.256Z,28.29
2018-05-21T10:53:56.283Z,28.59
2018-05-21T10:54:56.258Z,28.98
2018-05-21T10:55:56.258Z,29.68
2018-05-21T10:56:56.249Z,29.95
2018-05-21T10:57:56.245Z,30.43
2018-05-21T10:58:56.248Z,30.58
2018-05-21T10:59:56.272Z,30.80
2018-05-21T11:00:56.248Z,30.35
2018-05-21T11:01:56.249Z,29.68
2018-05-21T11:02:56.271Z,29.82
2018-05-21T11:03:56.307Z,30.01
2018-05-21T11:04:56.250Z,30.29
2018-05-21T11:05:56.245Z,30.49
2018-05-21T11:06:56.252Z,30.89
2018-05-21T11:07:56.245Z,30.94
2018-05-21T11:08:56.243Z,31.09
2018-05-21T11:09:56.267Z,30.82
2018-05-21T11:10:56.245Z,30.16
2018-05-21T11:11:56.243Z,30.46
2018-05-21T11:12:56.258Z,30.69
2018-05-21T11:13:56.242Z,30.55
2018-05-21T11:14:56.262Z,29.58
2018-05-21T11:15:56.262Z,29.68
2018-05-21T11:16:56.260Z,29.90
2018-05-21T11:17:56.256Z,30.34
2018-05-21T11:18:56.250Z,30.46
2018-05-21T11:19:56.280Z,30.46
2018-05-21T11:20:56.284Z,30.95
2018-05-21T11:21:56.282Z,31.23
2018-05-21T11:22:56.251Z,31.41
2018-05-21T11:23:58.016Z,31.81
2018-05-21T11:24:56.256Z,32.11
2018-05-21T11:25:56.263Z,31.86
2018-05-21T11:26:56.277Z,30.45
2018-05-21T11:27:56.259Z,29.74
2018-05-21T11:28:56.257Z,29.94
2018-05-21T11:29:56.275Z,29.94
2018-05-21T11:30:56.261Z,30.51
2018-05-21T11:31:56.299Z,30.79
2018-05-21T11:32:56.262Z,30.79
2018-05-21T11:33:56.271Z,30.55
2018-05-21T11:34:56.280Z,29.68
2018-05-21T11:35:56.266Z,29.21
2018-05-21T11:36:56.273Z,29.08
2018-05-21T11:37:56.277Z,28.83
2018-05-21T11:38:56.268Z,29.09
2018-05-21T11:39:56.288Z,28.76
2018-05-21T11:40:56.315Z,28.25
2018-05-21T11:41:56.272Z,28.40
2018-05-21T11:42:56.281Z,28.15
2018-05-21T11:43:56.273Z,28.41
2018-05-21T11:44:56.281Z,28.92
2018-05-21T11:45:56.272Z,29.45
2018-05-21T11:46:56.288Z,30.01
2018-05-21T11:47:56.275Z,30.54
2018-05-21T11:48:56.293Z,30.77
2018-05-21T11:49:56.266Z,31.12
2018-05-21T11:50:56.288Z,31.38
2018-05-21T11:51:56.284Z,31.51
2018-05-21T11:52:56.276Z,31.57
2018-05-21T11:53:56.301Z,31.63
2018-05-21T11:54:56.288Z,31.61
2018-05-21T11:55:56.274Z,31.69
2018-05-21T11:56:56.270Z,31.81
2018-05-21T11:57:56.273Z,31.62
2018-05-21T11:58:56.267Z,31.69
2018-05-21T11:59:56.290Z,31.46
2018-05-21T12:00:56.294Z,31.21
2018-05-21T12:01:56.298Z,30.94
2018-05-21T12:02:56.276Z,30.76
2018-05-21T12:03:56.295Z,30.04
2018-05-21T12:04:56.279Z,29.70
2018-05-21T12:05:56.276Z,29.87
2018-05-21T12:06:56.306Z,29.80
2018-05-21T12:07:56.286Z,29.79
2018-05-21T12:08:56.292Z,29.64
2018-05-21T12:09:56.295Z,29.92
2018-05-21T12:10:56.284Z,29.83
2018-05-21T12:11:56.282Z,30.32
2018-05-21T12:12:56.310Z,29.71
2018-05-21T12:13:56.292Z,29.70
2018-05-21T12:14:56.294Z,29.79
2018-05-21T12:15:56.286Z,30.16
2018-05-21T12:16:56.292Z,30.45
2018-05-21T12:17:56.300Z,30.75
2018-05-21T12:18:56.307Z,30.94
2018-05-21T12:19:56.296Z,31.17
2018-05-21T12:20:56.298Z,31.31
2018-05-21T12:21:56.295Z,31.32
2018-05-21T12:22:56.301Z,31.35
2018-05-21T12:23:56.310Z,31.65
2018-05-21T12:24:56.294Z,31.84
2018-05-21T12:25:56.292Z,31.69
2018-05-21T12:26:56.298Z,31.58
2018-05-21T12:27:56.299Z,31.48
2018-05-21T12:28:56.358Z,31.46
2018-05-21T12:29:56.320Z,30.70
2018-05-21T12:30:56.325Z,30.43
2018-05-21T12:31:56.320Z,30.26
2018-05-21T12:32:56.309Z,30.01
2018-05-21T12:33:56.320Z,29.80
2018-05-21T12:34:56.311Z,29.76
2018-05-21T12:35:56.339Z,29.78
2018-05-21T12:36:56.315Z,30.22
2018-05-21T12:37:56.323Z,30.53
2018-05-21T12:38:56.334Z,30.82
2018-05-21T12:39:56.323Z,30.64
2018-05-21T12:40:56.317Z,30.35
2018-05-21T12:41:56.324Z,30.29
2018-05-21T12:42:56.331Z,29.87
2018-05-21T12:43:56.333Z,29.73
2018-05-21T12:44:56.319Z,29.65
2018-05-21T12:45:56.334Z,29.63
2018-05-21T12:46:56.337Z,29.82
2018-05-21T12:47:56.336Z,29.92
2018-05-21T12:48:56.317Z,29.78
2018-05-21T12:49:56.333Z,29.53
2018-05-21T12:50:56.320Z,29.78
2018-05-21T12:51:56.318Z,29.74
2018-05-21T12:52:56.321Z,29.67
2018-05-21T12:53:56.394Z,29.70
2018-05-21T12:54:56.379Z,29.45
2018-05-21T12:55:56.422Z,29.64
2018-05-21T12:56:56.314Z,29.65
2018-05-21T12:57:56.314Z,29.74
2018-05-21T12:58:56.316Z,30.01
2018-05-21T12:59:56.330Z,30.32
2018-05-21T13:00:56.321Z,30.62
2018-05-21T13:01:56.317Z,30.73
2018-05-21T13:02:56.309Z,30.62
2018-05-21T13:03:56.308Z,30.70
2018-05-21T13:04:56.331Z,30.97
2018-05-21T13:05:56.328Z,30.98
2018-05-21T13:06:56.324Z,31.02
2018-05-21T13:07:56.356Z,31.04
2018-05-21T13:08:56.307Z,31.04
2018-05-21T13:09:56.313Z,31.10
2018-05-21T13:10:56.304Z,31.10
2018-05-21T13:11:56.333Z,30.75
2018-05-21T13:12:56.308Z,30.69
2018-05-21T13:13:56.321Z,30.58
2018-05-21T13:14:56.303Z,30.34
2018-05-21T13:15:56.306Z,30.27
2018-05-21T13:16:56.323Z,30.20
2018-05-21T13:17:56.308Z,29.94
2018-05-21T13:18:56.308Z,29.73
2018-05-21T13:19:56.293Z,29.86
2018-05-21T13:20:56.301Z,30.07
2018-05-21T13:21:56.298Z,29.83
2018-05-21T13:22:56.318Z,29.89
2018-05-21T13:23:56.295Z,29.76
2018-05-21T13:24:56.290Z,29.71
2018-05-21T13:25:56.306Z,29.71
2018-05-21T13:26:56.302Z,29.64
2018-05-21T13:27:56.291Z,29.37
2018-05-21T13:28:56.305Z,29.18
2018-05-21T13:29:56.299Z,29.43
2018-05-21T13:30:56.299Z,29.71
2018-05-21T13:31:56.282Z,30.01
2018-05-21T13:32:56.280Z,30.26
2018-05-21T13:33:56.287Z,30.49
2018-05-21T13:34:56.275Z,30.62
2018-05-21T13:35:56.289Z,30.99
2018-05-21T13:36:56.268Z,31.19
2018-05-21T13:37:56.265Z,31.17
2018-05-21T13:38:56.264Z,31.14
2018-05-21T13:39:56.261Z,31.20
2018-05-21T13:40:56.320Z,31.12
2018-05-21T13:41:56.271Z,30.99
2018-05-21T13:42:56.265Z,30.91
2018-05-21T13:43:56.248Z,30.80
2018-05-21T13:44:56.249Z,30.55
2018-05-21T13:45:56.267Z,30.31
2018-05-21T13:46:56.267Z,30.05
2018-05-21T13:47:56.235Z,29.73
2018-05-21T13:48:56.238Z,29.48
2018-05-21T13:49:56.236Z,29.27
2018-05-21T13:50:56.323Z,29.11
2018-05-21T13:51:56.241Z,28.81
2018-05-21T13:52:56.241Z,28.55
2018-05-21T13:53:56.228Z,28.48
2018-05-21T13:54:56.227Z,28.61
2018-05-21T13:55:56.226Z,28.67
2018-05-21T13:56:56.223Z,28.85
2018-05-21T13:57:56.224Z,29.00
2018-05-21T13:58:56.298Z,29.11
2018-05-21T13:59:56.196Z,29.23
2018-05-21T14:00:56.207Z,29.37
2018-05-21T14:01:56.247Z,29.53
2018-05-21T14:02:56.182Z,29.51
2018-05-21T14:03:56.184Z,29.28
2018-05-21T14:04:56.179Z,29.43
2018-05-21T14:05:56.175Z,29.71
2018-05-21T14:06:56.172Z,30.04
2018-05-21T14:07:56.185Z,30.31
2018-05-21T14:08:56.186Z,30.01
2018-05-21T14:09:56.180Z,29.98
2018-05-21T14:10:56.159Z,29.95
2018-05-21T14:11:56.150Z,29.94
2018-05-21T14:12:56.148Z,30.02
2018-05-21T14:13:56.163Z,29.65
2018-05-21T14:14:56.153Z,29.52
2018-05-21T14:15:56.133Z,29.23
2018-05-21T14:16:56.127Z,29.11
2018-05-21T14:17:56.122Z,28.95
2018-05-21T14:18:56.143Z,28.98
2018-05-21T14:19:56.117Z,28.77
2018-05-21T14:20:56.113Z,28.56
2018-05-21T14:21:56.102Z,28.44
2018-05-21T14:22:56.105Z,28.37
2018-05-21T14:23:56.119Z,28.39
2018-05-21T14:24:56.092Z,28.30
2018-05-21T14:25:56.118Z,28.18
2018-05-21T14:26:56.108Z,28.19
2018-05-21T14:27:56.079Z,28.19
2018-05-21T14:28:56.090Z,28.21
2018-05-21T14:29:56.067Z,28.07
2018-05-21T14:30:56.065Z,28.12
2018-05-21T14:31:56.057Z,28.07
2018-05-21T14:32:56.054Z,28.33
2018-05-21T14:33:56.048Z,28.55
2018-05-21T14:34:56.066Z,28.78
2018-05-21T14:35:56.040Z,28.78
2018-05-21T14:36:56.048Z,29.11
2018-05-21T14:37:56.024Z,29.23
2018-05-21T14:38:56.025Z,29.14
2018-05-21T14:39:56.016Z,29.42
2018-05-21T14:40:56.011Z,29.64
2018-05-21T14:41:56.017Z,29.76
2018-05-21T14:42:56.010Z,29.80
2018-05-21T14:43:55.992Z,29.76
2018-05-21T14:44:55.992Z,29.90
2018-05-21T14:45:55.984Z,30.10
2018-05-21T14:46:56.003Z,30.27
2018-05-21T14:47:55.974Z,30.02
2018-05-21T14:48:55.970Z,29.76
2018-05-21T14:49:55.964Z,29.43
2018-05-21T14:50:55.975Z,29.41
2018-05-21T14:51:55.950Z,29.11